Terminal Aerodrome Forecast
Issued by NWS Charleston, WV

Current Version | Previous Version | Text Only | Print | Product List | Glossary Off
Versions: 1 2 3 4 5 6 7 8 9 10 11 12 13 14 15 16 17 18 19 20 21 22 23 24 25 26

000
FTUS41 KRLX 260842 AAA
TAFEKN
TAF AMD
KEKN 260842Z 2609/2706 00000KT P6SM SKC
     FM261000 00000KT 5SM BR SCT130
     FM261400 VRB03KT P6SM BKN250
     FM261900 20009KT 6SM SHRA BKN040
     FM262100 20010G21KT 2SM SHRA BR VCTS BKN050CB
     FM262300 25010G20KT 2SM SHRA BR VCTS OVC035CB
     FM270000 27009KT 2SM -SHRA BR OVC003
     FM270300 30004KT 1/4SM -SHRA FG OVC001
     FM270500 28004KT 5SM BR BKN003=

USA.gov is the U.S. government's official web portal to all federal, state and local government web resources and services.